sensor_id;sensor_type;location;lat;lon;timestamp;P1;P2;P0
73749;PMS7003;62058;48.406;-4.514;2022-12-18T00:00:46;15.25;13.00;10.00
73749;PMS7003;62058;48.406;-4.514;2022-12-18T00:03:12;18.25;11.50;7.00
73749;PMS7003;62058;48.406;-4.514;2022-12-18T00:05:45;12.25;11.50;8.50
73749;PMS7003;62058;48.406;-4.514;2022-12-18T00:08:15;15.75;11.50;6.75
73749;PMS7003;62058;48.406;-4.514;2022-12-18T00:10:41;15.00;12.00;7.50
73749;PMS7003;62058;48.406;-4.514;2022-12-18T00:13:07;16.00;9.00;6.25
73749;PMS7003;62058;48.406;-4.514;2022-12-18T00:15:36;16.75;13.00;10.50
73749;PMS7003;62058;48.406;-4.514;2022-12-18T00:18:03;15.75;12.00;9.00
73749;PMS7003;62058;48.406;-4.514;2022-12-18T00:20:28;17.25;15.00;9.75
73749;PMS7003;62058;48.406;-4.514;2022-12-18T00:22:54;46.25;38.25;22.00
73749;PMS7003;62058;48.406;-4.514;2022-12-18T00:25:20;20.00;17.00;12.25
73749;PMS7003;62058;48.406;-4.514;2022-12-18T00:27:45;50.00;38.00;24.00
73749;PMS7003;62058;48.406;-4.514;2022-12-18T00:30:11;19.75;16.00;12.00
73749;PMS7003;62058;48.406;-4.514;2022-12-18T00:32:37;25.25;16.75;9.25
73749;PMS7003;62058;48.406;-4.514;2022-12-18T00:35:02;16.50;13.50;9.75
73749;PMS7003;62058;48.406;-4.514;2022-12-18T00:37:29;16.75;13.00;9.25
73749;PMS7003;62058;48.406;-4.514;2022-12-18T00:39:54;13.75;12.25;8.00
73749;PMS7003;62058;48.406;-4.514;2022-12-18T00:42:20;25.25;16.00;7.00
73749;PMS7003;62058;48.406;-4.514;2022-12-18T00:45:04;19.25;15.50;9.75
73749;PMS7003;62058;48.406;-4.514;2022-12-18T00:47:30;23.00;20.00;13.50
73749;PMS7003;62058;48.406;-4.514;2022-12-18T00:49:55;20.25;16.50;12.00
73749;PMS7003;62058;48.406;-4.514;2022-12-18T00:52:20;31.25;15.75;12.50
73749;PMS7003;62058;48.406;-4.514;2022-12-18T00:54:46;21.75;15.50;9.25
73749;PMS7003;62058;48.406;-4.514;2022-12-18T00:57:11;11.50;9.50;7.00
73749;PMS7003;62058;48.406;-4.514;2022-12-18T00:59:36;21.50;19.00;13.00
73749;PMS7003;62058;48.406;-4.514;2022-12-18T01:02:02;22.50;21.50;15.50
73749;PMS7003;62058;48.406;-4.514;2022-12-18T01:04:27;19.25;13.50;10.50
73749;PMS7003;62058;48.406;-4.514;2022-12-18T01:06:53;18.25;15.50;10.00
73749;PMS7003;62058;48.406;-4.514;2022-12-18T01:09:19;24.75;17.00;13.50
73749;PMS7003;62058;48.406;-4.514;2022-12-18T01:11:44;20.25;17.00;13.00
73749;PMS7003;62058;48.406;-4.514;2022-12-18T01:14:09;21.00;12.25;8.00
73749;PMS7003;62058;48.406;-4.514;2022-12-18T01:16:35;27.75;20.50;13.00
73749;PMS7003;62058;48.406;-4.514;2022-12-18T01:19:00;20.00;15.50;11.00
73749;PMS7003;62058;48.406;-4.514;2022-12-18T01:21:26;26.50;20.25;11.50
73749;PMS7003;62058;48.406;-4.514;2022-12-18T01:23:52;17.00;13.50;11.00
73749;PMS7003;62058;48.406;-4.514;2022-12-18T01:26:19;17.00;15.75;8.00
73749;PMS7003;62058;48.406;-4.514;2022-12-18T01:28:44;16.25;11.25;7.25
73749;PMS7003;62058;48.406;-4.514;2022-12-18T01:31:15;19.50;14.25;9.25
73749;PMS7003;62058;48.406;-4.514;2022-12-18T01:33:41;17.00;12.75;11.50
73749;PMS7003;62058;48.406;-4.514;2022-12-18T01:36:06;26.25;16.50;10.50
73749;PMS7003;62058;48.406;-4.514;2022-12-18T01:38:32;27.25;18.00;12.00
73749;PMS7003;62058;48.406;-4.514;2022-12-18T01:40:58;23.50;12.25;9.00
73749;PMS7003;62058;48.406;-4.514;2022-12-18T01:46:11;33.50;19.00;11.00
73749;PMS7003;62058;48.406;-4.514;2022-12-18T01:48:37;19.25;14.50;10.00
73749;PMS7003;62058;48.406;-4.514;2022-12-18T01:51:04;26.50;19.25;13.00
73749;PMS7003;62058;48.406;-4.514;2022-12-18T01:53:29;13.00;9.00;7.00
73749;PMS7003;62058;48.406;-4.514;2022-12-18T01:55:56;22.25;14.50;10.50
73749;PMS7003;62058;48.406;-4.514;2022-12-18T01:58:38;23.50;15.25;10.50
73749;PMS7003;62058;48.406;-4.514;2022-12-18T02:01:10;20.25;11.00;10.00
73749;PMS7003;62058;48.406;-4.514;2022-12-18T02:03:36;32.25;21.25;12.50
73749;PMS7003;62058;48.406;-4.514;2022-12-18T02:08:41;24.25;19.50;12.50
73749;PMS7003;62058;48.406;-4.514;2022-12-18T02:19:21;25.50;21.75;16.00
73749;PMS7003;62058;48.406;-4.514;2022-12-18T02:25:05;25.25;19.00;12.25
73749;PMS7003;62058;48.406;-4.514;2022-12-18T02:27:59;25.00;18.00;13.00
73749;PMS7003;62058;48.406;-4.514;2022-12-18T02:30:27;16.75;13.25;8.25
73749;PMS7003;62058;48.406;-4.514;2022-12-18T02:32:56;14.75;14.75;12.75
73749;PMS7003;62058;48.406;-4.514;2022-12-18T02:35:24;13.00;10.50;7.00
73749;PMS7003;62058;48.406;-4.514;2022-12-18T02:37:52;26.25;21.50;13.00
73749;PMS7003;62058;48.406;-4.514;2022-12-18T02:40:18;22.00;18.50;12.50
73749;PMS7003;62058;48.406;-4.514;2022-12-18T02:42:45;18.75;15.00;10.00
73749;PMS7003;62058;48.406;-4.514;2022-12-18T02:45:11;31.25;20.00;14.50
73749;PMS7003;62058;48.406;-4.514;2022-12-18T02:47:37;23.50;16.25;10.75
73749;PMS7003;62058;48.406;-4.514;2022-12-18T02:58:06;28.50;16.25;11.25
73749;PMS7003;62058;48.406;-4.514;2022-12-18T03:00:58;22.75;15.75;10.75
73749;PMS7003;62058;48.406;-4.514;2022-12-18T03:03:34;23.50;16.50;13.00
73749;PMS7003;62058;48.406;-4.514;2022-12-18T03:06:08;25.50;20.50;15.25
73749;PMS7003;62058;48.406;-4.514;2022-12-18T03:08:42;20.25;16.25;11.75
73749;PMS7003;62058;48.406;-4.514;2022-12-18T03:11:11;20.75;16.00;13.00
73749;PMS7003;62058;48.406;-4.514;2022-12-18T03:13:43;21.25;18.50;12.00
73749;PMS7003;62058;48.406;-4.514;2022-12-18T03:16:23;29.00;20.00;13.50
73749;PMS7003;62058;48.406;-4.514;2022-12-18T03:18:53;24.75;20.25;15.00
73749;PMS7003;62058;48.406;-4.514;2022-12-18T03:21:32;30.75;25.75;14.75
73749;PMS7003;62058;48.406;-4.514;2022-12-18T03:24:01;27.25;20.00;14.75
73749;PMS7003;62058;48.406;-4.514;2022-12-18T03:26:32;24.25;18.00;15.00
73749;PMS7003;62058;48.406;-4.514;2022-12-18T03:29:02;24.50;18.00;13.75
73749;PMS7003;62058;48.406;-4.514;2022-12-18T03:31:32;28.50;19.25;13.75
73749;PMS7003;62058;48.406;-4.514;2022-12-18T03:33:58;22.00;18.75;12.25
73749;PMS7003;62058;48.406;-4.514;2022-12-18T03:36:28;34.25;22.75;15.50
73749;PMS7003;62058;48.406;-4.514;2022-12-18T03:38:53;20.25;15.00;10.50
73749;PMS7003;62058;48.406;-4.514;2022-12-18T03:44:10;29.00;20.25;15.00
73749;PMS7003;62058;48.406;-4.514;2022-12-18T03:47:04;28.00;24.25;18.00
73749;PMS7003;62058;48.406;-4.514;2022-12-18T03:49:44;24.50;21.00;13.50
73749;PMS7003;62058;48.406;-4.514;2022-12-18T03:52:20;28.25;22.00;16.25
73749;PMS7003;62058;48.406;-4.514;2022-12-18T03:55:00;18.25;18.25;12.50
73749;PMS7003;62058;48.406;-4.514;2022-12-18T03:57:28;21.25;12.25;7.25
73749;PMS7003;62058;48.406;-4.514;2022-12-18T03:59:58;29.75;21.75;16.00
73749;PMS7003;62058;48.406;-4.514;2022-12-18T04:02:28;32.75;24.50;17.00
73749;PMS7003;62058;48.406;-4.514;2022-12-18T04:04:56;24.25;20.00;16.00
73749;PMS7003;62058;48.406;-4.514;2022-12-18T04:07:24;26.50;20.50;14.75
73749;PMS7003;62058;48.406;-4.514;2022-12-18T04:09:50;30.00;22.75;16.00
73749;PMS7003;62058;48.406;-4.514;2022-12-18T04:12:20;31.75;21.75;14.50
73749;PMS7003;62058;48.406;-4.514;2022-12-18T04:14:46;22.75;17.50;12.50
73749;PMS7003;62058;48.406;-4.514;2022-12-18T04:17:11;22.00;20.50;15.25
73749;PMS7003;62058;48.406;-4.514;2022-12-18T04:19:36;21.00;17.00;13.00
73749;PMS7003;62058;48.406;-4.514;2022-12-18T04:22:02;32.00;23.75;18.50
73749;PMS7003;62058;48.406;-4.514;2022-12-18T04:24:27;26.50;21.50;14.50
73749;PMS7003;62058;48.406;-4.514;2022-12-18T04:26:52;28.50;20.25;14.00
73749;PMS7003;62058;48.406;-4.514;2022-12-18T04:29:18;42.50;33.75;22.50
73749;PMS7003;62058;48.406;-4.514;2022-12-18T04:31:44;42.25;34.50;21.50
73749;PMS7003;62058;48.406;-4.514;2022-12-18T04:34:09;29.50;23.00;15.00
73749;PMS7003;62058;48.406;-4.514;2022-12-18T04:36:34;24.25;19.25;12.00
73749;PMS7003;62058;48.406;-4.514;2022-12-18T04:39:00;38.00;29.50;21.50
73749;PMS7003;62058;48.406;-4.514;2022-12-18T04:41:25;18.00;16.75;13.00
73749;PMS7003;62058;48.406;-4.514;2022-12-18T04:43:50;20.75;18.25;11.75
73749;PMS7003;62058;48.406;-4.514;2022-12-18T04:46:16;29.00;26.00;18.75
73749;PMS7003;62058;48.406;-4.514;2022-12-18T04:48:41;23.00;19.25;14.25
73749;PMS7003;62058;48.406;-4.514;2022-12-18T04:51:06;23.00;15.50;11.50
73749;PMS7003;62058;48.406;-4.514;2022-12-18T04:53:32;24.25;20.50;15.25
73749;PMS7003;62058;48.406;-4.514;2022-12-18T04:58:30;25.25;18.75;15.00
73749;PMS7003;62058;48.406;-4.514;2022-12-18T05:00:56;30.25;18.25;13.50
73749;PMS7003;62058;48.406;-4.514;2022-12-18T05:03:21;35.25;31.75;18.75
73749;PMS7003;62058;48.406;-4.514;2022-12-18T05:05:50;21.25;18.50;12.75
73749;PMS7003;62058;48.406;-4.514;2022-12-18T05:08:16;35.75;31.25;19.75
73749;PMS7003;62058;48.406;-4.514;2022-12-18T05:10:42;27.00;23.25;16.00
73749;PMS7003;62058;48.406;-4.514;2022-12-18T05:13:07;21.25;19.00;12.75
73749;PMS7003;62058;48.406;-4.514;2022-12-18T05:15:33;30.50;24.50;17.75
73749;PMS7003;62058;48.406;-4.514;2022-12-18T05:17:59;29.25;25.75;16.00
73749;PMS7003;62058;48.406;-4.514;2022-12-18T05:20:25;19.75;19.50;13.25
73749;PMS7003;62058;48.406;-4.514;2022-12-18T05:22:52;19.75;17.75;12.00
73749;PMS7003;62058;48.406;-4.514;2022-12-18T05:25:18;19.50;17.75;12.50
73749;PMS7003;62058;48.406;-4.514;2022-12-18T05:27:44;11.50;8.25;1.75
73749;PMS7003;62058;48.406;-4.514;2022-12-18T05:30:10;34.25;27.50;17.75
73749;PMS7003;62058;48.406;-4.514;2022-12-18T05:32:37;26.50;18.75;11.50
73749;PMS7003;62058;48.406;-4.514;2022-12-18T05:35:03;29.75;26.00;16.25
73749;PMS7003;62058;48.406;-4.514;2022-12-18T05:37:30;21.25;17.75;14.25
73749;PMS7003;62058;48.406;-4.514;2022-12-18T05:39:56;27.25;26.00;16.00
73749;PMS7003;62058;48.406;-4.514;2022-12-18T05:42:21;19.00;14.00;10.00
73749;PMS7003;62058;48.406;-4.514;2022-12-18T05:44:46;24.50;19.25;13.75
73749;PMS7003;62058;48.406;-4.514;2022-12-18T05:47:12;28.50;23.50;18.00
73749;PMS7003;62058;48.406;-4.514;2022-12-18T05:49:38;30.75;28.50;19.50
73749;PMS7003;62058;48.406;-4.514;2022-12-18T05:52:03;25.75;23.25;17.25
73749;PMS7003;62058;48.406;-4.514;2022-12-18T05:54:29;26.25;22.50;15.25
73749;PMS7003;62058;48.406;-4.514;2022-12-18T05:56:56;36.25;27.75;19.50
73749;PMS7003;62058;48.406;-4.514;2022-12-18T05:59:22;38.00;31.75;20.25
73749;PMS7003;62058;48.406;-4.514;2022-12-18T06:01:47;27.50;26.00;18.00
73749;PMS7003;62058;48.406;-4.514;2022-12-18T06:04:12;30.50;24.75;16.00
73749;PMS7003;62058;48.406;-4.514;2022-12-18T06:06:38;21.75;19.75;15.50
73749;PMS7003;62058;48.406;-4.514;2022-12-18T06:09:03;27.75;20.50;13.25
73749;PMS7003;62058;48.406;-4.514;2022-12-18T06:11:34;27.00;20.75;14.25
73749;PMS7003;62058;48.406;-4.514;2022-12-18T06:14:02;30.00;23.50;16.00
73749;PMS7003;62058;48.406;-4.514;2022-12-18T06:16:28;18.75;15.50;9.25
73749;PMS7003;62058;48.406;-4.514;2022-12-18T06:19:01;18.00;16.00;10.00
73749;PMS7003;62058;48.406;-4.514;2022-12-18T06:21:28;25.75;22.25;13.75
73749;PMS7003;62058;48.406;-4.514;2022-12-18T06:23:54;35.50;25.25;15.25
73749;PMS7003;62058;48.406;-4.514;2022-12-18T06:26:20;25.25;19.25;13.50
73749;PMS7003;62058;48.406;-4.514;2022-12-18T06:28:46;23.75;17.25;12.25
73749;PMS7003;62058;48.406;-4.514;2022-12-18T06:31:11;24.75;20.25;13.75
73749;PMS7003;62058;48.406;-4.514;2022-12-18T06:33:37;25.00;19.75;14.50
73749;PMS7003;62058;48.406;-4.514;2022-12-18T06:36:07;29.00;25.50;17.00
73749;PMS7003;62058;48.406;-4.514;2022-12-18T06:38:36;26.75;26.50;18.50
73749;PMS7003;62058;48.406;-4.514;2022-12-18T06:41:11;24.50;21.75;15.25
73749;PMS7003;62058;48.406;-4.514;2022-12-18T06:43:37;27.50;21.75;17.25
73749;PMS7003;62058;48.406;-4.514;2022-12-18T06:46:04;28.75;23.25;14.75
73749;PMS7003;62058;48.406;-4.514;2022-12-18T06:48:30;30.00;25.75;18.75
73749;PMS7003;62058;48.406;-4.514;2022-12-18T06:50:55;28.25;26.75;17.50
73749;PMS7003;62058;48.406;-4.514;2022-12-18T06:53:21;25.00;21.25;16.50
73749;PMS7003;62058;48.406;-4.514;2022-12-18T06:55:46;25.50;22.25;15.00
73749;PMS7003;62058;48.406;-4.514;2022-12-18T06:58:12;24.50;22.00;16.75
73749;PMS7003;62058;48.406;-4.514;2022-12-18T07:00:37;18.00;18.00;15.00
73749;PMS7003;62058;48.406;-4.514;2022-12-18T07:03:02;28.75;24.00;16.50
73749;PMS7003;62058;48.406;-4.514;2022-12-18T07:05:28;23.25;19.25;14.75
73749;PMS7003;62058;48.406;-4.514;2022-12-18T07:07:53;24.75;17.25;13.00
73749;PMS7003;62058;48.406;-4.514;2022-12-18T07:10:19;13.00;11.50;10.50
73749;PMS7003;62058;48.406;-4.514;2022-12-18T07:12:44;20.25;16.50;11.25
73749;PMS7003;62058;48.406;-4.514;2022-12-18T07:15:10;16.50;15.50;10.75
73749;PMS7003;62058;48.406;-4.514;2022-12-18T07:17:35;15.50;14.50;10.00
73749;PMS7003;62058;48.406;-4.514;2022-12-18T07:20:02;14.75;12.50;9.25
73749;PMS7003;62058;48.406;-4.514;2022-12-18T07:22:28;12.50;11.00;9.25
73749;PMS7003;62058;48.406;-4.514;2022-12-18T07:24:54;22.25;19.75;13.75
73749;PMS7003;62058;48.406;-4.514;2022-12-18T07:27:20;18.25;17.25;13.50
73749;PMS7003;62058;48.406;-4.514;2022-12-18T07:29:46;14.75;14.75;11.00
73749;PMS7003;62058;48.406;-4.514;2022-12-18T07:32:11;16.50;15.75;10.75
73749;PMS7003;62058;48.406;-4.514;2022-12-18T07:34:36;21.00;16.50;12.75
73749;PMS7003;62058;48.406;-4.514;2022-12-18T07:37:02;18.25;15.00;11.75
73749;PMS7003;62058;48.406;-4.514;2022-12-18T07:39:27;16.50;16.00;12.75
73749;PMS7003;62058;48.406;-4.514;2022-12-18T07:41:53;11.50;10.50;6.50
73749;PMS7003;62058;48.406;-4.514;2022-12-18T07:44:36;12.75;10.50;9.25
73749;PMS7003;62058;48.406;-4.514;2022-12-18T07:47:02;14.25;12.75;10.00
73749;PMS7003;62058;48.406;-4.514;2022-12-18T07:49:28;13.75;12.75;10.75
73749;PMS7003;62058;48.406;-4.514;2022-12-18T07:51:56;15.00;10.75;8.00
73749;PMS7003;62058;48.406;-4.514;2022-12-18T07:54:23;10.50;7.50;6.00
73749;PMS7003;62058;48.406;-4.514;2022-12-18T07:56:49;9.00;7.50;5.75
73749;PMS7003;62058;48.406;-4.514;2022-12-18T07:59:14;15.50;13.25;10.25
73749;PMS7003;62058;48.406;-4.514;2022-12-18T08:01:40;13.50;11.50;9.00
73749;PMS7003;62058;48.406;-4.514;2022-12-18T08:04:05;12.75;7.75;6.00
73749;PMS7003;62058;48.406;-4.514;2022-12-18T08:06:31;14.25;12.75;9.75
73749;PMS7003;62058;48.406;-4.514;2022-12-18T08:08:56;12.50;10.75;9.75
73749;PMS7003;62058;48.406;-4.514;2022-12-18T08:11:23;13.25;10.00;8.25
73749;PMS7003;62058;48.406;-4.514;2022-12-18T08:13:50;11.25;11.25;8.50
73749;PMS7003;62058;48.406;-4.514;2022-12-18T08:16:16;11.00;8.50;7.00
73749;PMS7003;62058;48.406;-4.514;2022-12-18T08:18:42;13.50;12.50;9.75
73749;PMS7003;62058;48.406;-4.514;2022-12-18T08:21:11;12.00;9.75;8.00
73749;PMS7003;62058;48.406;-4.514;2022-12-18T08:23:38;12.50;10.00;7.25
73749;PMS7003;62058;48.406;-4.514;2022-12-18T08:26:04;12.75;9.25;7.25
73749;PMS7003;62058;48.406;-4.514;2022-12-18T08:28:30;5.50;5.50;4.75
73749;PMS7003;62058;48.406;-4.514;2022-12-18T08:30:55;6.50;6.50;5.00
73749;PMS7003;62058;48.406;-4.514;2022-12-18T08:33:21;8.75;7.25;5.00
73749;PMS7003;62058;48.406;-4.514;2022-12-18T08:35:46;10.50;8.25;6.50
73749;PMS7003;62058;48.406;-4.514;2022-12-18T08:38:11;6.00;4.75;3.75
73749;PMS7003;62058;48.406;-4.514;2022-12-18T08:40:37;9.00;6.50;5.00
73749;PMS7003;62058;48.406;-4.514;2022-12-18T08:43:02;6.50;5.75;5.00
73749;PMS7003;62058;48.406;-4.514;2022-12-18T08:45:46;5.25;5.00;4.75
73749;PMS7003;62058;48.406;-4.514;2022-12-18T08:48:12;5.00;3.25;3.00
73749;PMS7003;62058;48.406;-4.514;2022-12-18T08:50:37;9.00;4.50;4.50
73749;PMS7003;62058;48.406;-4.514;2022-12-18T08:53:03;3.75;2.75;0.00
73749;PMS7003;62058;48.406;-4.514;2022-12-18T08:55:28;7.25;3.50;2.50
73749;PMS7003;62058;48.406;-4.514;2022-12-18T08:57:54;8.25;6.00;5.00
73749;PMS7003;62058;48.406;-4.514;2022-12-18T09:00:19;11.00;4.25;3.00
73749;PMS7003;62058;48.406;-4.514;2022-12-18T09:02:45;7.50;6.50;4.00
73749;PMS7003;62058;48.406;-4.514;2022-12-18T09:05:10;5.50;5.00;2.50
73749;PMS7003;62058;48.406;-4.514;2022-12-18T09:07:35;5.75;5.00;3.00
73749;PMS7003;62058;48.406;-4.514;2022-12-18T09:10:01;5.00;3.50;2.25
73749;PMS7003;62058;48.406;-4.514;2022-12-18T09:12:26;7.50;3.00;2.50
73749;PMS7003;62058;48.406;-4.514;2022-12-18T09:14:52;3.25;3.00;2.25
73749;PMS7003;62058;48.406;-4.514;2022-12-18T09:17:17;6.75;6.25;4.00
73749;PMS7003;62058;48.406;-4.514;2022-12-18T09:19:42;9.50;4.50;3.50
73749;PMS7003;62058;48.406;-4.514;2022-12-18T09:22:08;6.25;4.25;3.75
73749;PMS7003;62058;48.406;-4.514;2022-12-18T09:24:34;10.25;5.00;3.50
73749;PMS7003;62058;48.406;-4.514;2022-12-18T09:27:00;6.00;6.00;4.00
73749;PMS7003;62058;48.406;-4.514;2022-12-18T09:29:25;12.00;5.00;3.75
73749;PMS7003;62058;48.406;-4.514;2022-12-18T09:31:50;11.50;8.00;4.50
73749;PMS7003;62058;48.406;-4.514;2022-12-18T09:34:16;7.75;6.25;4.25
73749;PMS7003;62058;48.406;-4.514;2022-12-18T09:36:41;7.25;5.75;2.50
73749;PMS7003;62058;48.406;-4.514;2022-12-18T09:39:07;9.00;5.50;3.25
73749;PMS7003;62058;48.406;-4.514;2022-12-18T09:41:40;10.25;6.00;4.00
73749;PMS7003;62058;48.406;-4.514;2022-12-18T09:49:48;8.25;4.00;2.00
73749;PMS7003;62058;48.406;-4.514;2022-12-18T09:55:03;7.50;3.00;1.25
73749;PMS7003;62058;48.406;-4.514;2022-12-18T09:57:37;5.50;3.25;2.25
73749;PMS7003;62058;48.406;-4.514;2022-12-18T10:00:20;3.50;1.25;1.25
73749;PMS7003;62058;48.406;-4.514;2022-12-18T10:02:47;6.75;3.50;2.25
73749;PMS7003;62058;48.406;-4.514;2022-12-18T10:05:16;6.00;2.75;2.00
73749;PMS7003;62058;48.406;-4.514;2022-12-18T10:07:57;4.50;4.00;3.75
73749;PMS7003;62058;48.406;-4.514;2022-12-18T10:10:38;9.00;3.00;2.75
73749;PMS7003;62058;48.406;-4.514;2022-12-18T10:24:46;4.25;4.25;3.25
73749;PMS7003;62058;48.406;-4.514;2022-12-18T10:27:30;3.50;2.00;2.00
73749;PMS7003;62058;48.406;-4.514;2022-12-18T10:29:56;3.75;3.00;3.00
73749;PMS7003;62058;48.406;-4.514;2022-12-18T10:32:23;0.00;0.00;0.00
73749;PMS7003;62058;48.406;-4.514;2022-12-18T10:34:56;9.75;3.75;3.50
73749;PMS7003;62058;48.406;-4.514;2022-12-18T10:37:26;0.00;0.00;0.00
73749;PMS7003;62058;48.406;-4.514;2022-12-18T10:40:07;4.00;2.50;2.00
73749;PMS7003;62058;48.406;-4.514;2022-12-18T10:42:36;10.50;6.50;4.00
73749;PMS7003;62058;48.406;-4.514;2022-12-18T10:45:08;6.25;4.75;3.00
73749;PMS7003;62058;48.406;-4.514;2022-12-18T10:47:42;7.00;6.75;4.50
73749;PMS7003;62058;48.406;-4.514;2022-12-18T10:50:20;3.75;2.25;2.00
73749;PMS7003;62058;48.406;-4.514;2022-12-18T10:52:58;9.50;7.25;5.25
73749;PMS7003;62058;48.406;-4.514;2022-12-18T10:55:27;7.75;5.00;4.00
73749;PMS7003;62058;48.406;-4.514;2022-12-18T10:58:16;7.25;4.50;3.00
73749;PMS7003;62058;48.406;-4.514;2022-12-18T11:01:07;7.75;5.00;3.50
73749;PMS7003;62058;48.406;-4.514;2022-12-18T11:03:38;6.00;2.00;2.00
73749;PMS7003;62058;48.406;-4.514;2022-12-18T11:06:10;9.50;4.75;3.50
73749;PMS7003;62058;48.406;-4.514;2022-12-18T11:08:41;9.00;6.75;5.00
73749;PMS7003;62058;48.406;-4.514;2022-12-18T11:11:41;6.50;5.00;4.00
73749;PMS7003;62058;48.406;-4.514;2022-12-18T11:14:04;14.25;5.00;2.00
73749;PMS7003;62058;48.406;-4.514;2022-12-18T11:16:36;8.00;4.75;3.00
73749;PMS7003;62058;48.406;-4.514;2022-12-18T11:19:13;8.25;2.75;1.75
73749;PMS7003;62058;48.406;-4.514;2022-12-18T11:21:46;10.00;3.25;2.75
73749;PMS7003;62058;48.406;-4.514;2022-12-18T11:24:30;11.00;6.25;4.75
73749;PMS7003;62058;48.406;-4.514;2022-12-18T11:27:00;11.25;7.00;5.00
73749;PMS7003;62058;48.406;-4.514;2022-12-18T11:29:37;10.50;6.25;5.25
73749;PMS7003;62058;48.406;-4.514;2022-12-18T11:37:38;7.75;5.00;4.00
73749;PMS7003;62058;48.406;-4.514;2022-12-18T11:40:14;8.50;5.00;4.00
73749;PMS7003;62058;48.406;-4.514;2022-12-18T11:45:41;6.25;5.75;4.25
73749;PMS7003;62058;48.406;-4.514;2022-12-18T11:50:51;12.50;6.00;4.00
73749;PMS7003;62058;48.406;-4.514;2022-12-18T11:53:21;10.00;6.00;4.25
73749;PMS7003;62058;48.406;-4.514;2022-12-18T12:01:18;7.50;5.25;4.50
73749;PMS7003;62058;48.406;-4.514;2022-12-18T12:25:49;6.25;6.00;4.50
73749;PMS7003;62058;48.406;-4.514;2022-12-18T12:33:36;10.00;6.75;5.00
73749;PMS7003;62058;48.406;-4.514;2022-12-18T12:38:47;12.50;7.00;5.00
73749;PMS7003;62058;48.406;-4.514;2022-12-18T12:41:17;12.50;5.00;3.00
73749;PMS7003;62058;48.406;-4.514;2022-12-18T12:44:05;8.00;6.50;3.00
73749;PMS7003;62058;48.406;-4.514;2022-12-18T12:46:35;7.00;2.00;1.00
73749;PMS7003;62058;48.406;-4.514;2022-12-18T12:49:05;5.00;4.00;3.00
73749;PMS7003;62058;48.406;-4.514;2022-12-18T12:51:39;8.00;4.25;2.75
73749;PMS7003;62058;48.406;-4.514;2022-12-18T12:54:17;6.75;5.75;4.75
73749;PMS7003;62058;48.406;-4.514;2022-12-18T12:56:49;8.00;4.75;4.00
73749;PMS7003;62058;48.406;-4.514;2022-12-18T13:12:58;1.75;1.00;1.00
73749;PMS7003;62058;48.406;-4.514;2022-12-18T13:15:37;5.75;3.00;3.00
73749;PMS7003;62058;48.406;-4.514;2022-12-18T13:21:21;5.50;3.50;2.75
73749;PMS7003;62058;48.406;-4.514;2022-12-18T13:25:58;3.75;2.75;2.50
73749;PMS7003;62058;48.406;-4.514;2022-12-18T13:31:12;3.25;3.00;2.00
73749;PMS7003;62058;48.406;-4.514;2022-12-18T13:33:39;6.50;3.00;3.00
73749;PMS7003;62058;48.406;-4.514;2022-12-18T13:38:39;1.00;1.00;0.00
73749;PMS7003;62058;48.406;-4.514;2022-12-18T13:46:26;4.67;3.00;2.00
73749;PMS7003;62058;48.406;-4.514;2022-12-18T13:51:39;6.00;4.25;2.75
73749;PMS7003;62058;48.406;-4.514;2022-12-18T13:56:55;5.00;1.00;1.00
73749;PMS7003;62058;48.406;-4.514;2022-12-18T14:01:47;2.50;2.00;2.00
73749;PMS7003;62058;48.406;-4.514;2022-12-18T14:06:46;6.25;3.75;3.00
73749;PMS7003;62058;48.406;-4.514;2022-12-18T14:09:20;8.25;3.75;1.50
73749;PMS7003;62058;48.406;-4.514;2022-12-18T14:11:51;3.75;2.75;2.00
73749;PMS7003;62058;48.406;-4.514;2022-12-18T14:14:38;5.00;3.00;1.50
73749;PMS7003;62058;48.406;-4.514;2022-12-18T14:17:10;1.00;1.00;1.00
73749;PMS7003;62058;48.406;-4.514;2022-12-18T14:19:37;6.00;3.00;1.25
73749;PMS7003;62058;48.406;-4.514;2022-12-18T14:22:11;2.50;0.00;0.00
73749;PMS7003;62058;48.406;-4.514;2022-12-18T14:24:41;2.75;1.50;1.00
73749;PMS7003;62058;48.406;-4.514;2022-12-18T14:27:24;5.00;2.25;1.25
73749;PMS7003;62058;48.406;-4.514;2022-12-18T14:29:50;2.75;2.75;2.00
73749;PMS7003;62058;48.406;-4.514;2022-12-18T14:32:20;9.25;2.00;1.00
73749;PMS7003;62058;48.406;-4.514;2022-12-18T14:37:23;5.75;3.75;2.50
73749;PMS7003;62058;48.406;-4.514;2022-12-18T14:42:19;5.25;2.00;1.00
73749;PMS7003;62058;48.406;-4.514;2022-12-18T14:44:45;5.00;4.25;3.00
73749;PMS7003;62058;48.406;-4.514;2022-12-18T14:47:14;3.00;2.00;2.00
73749;PMS7003;62058;48.406;-4.514;2022-12-18T14:49:41;13.75;2.75;2.00
73749;PMS7003;62058;48.406;-4.514;2022-12-18T14:52:18;4.75;2.00;2.00
73749;PMS7003;62058;48.406;-4.514;2022-12-18T14:54:51;6.50;3.50;3.00
73749;PMS7003;62058;48.406;-4.514;2022-12-18T14:59:49;5.00;1.00;1.00
73749;PMS7003;62058;48.406;-4.514;2022-12-18T15:02:22;6.75;4.50;3.00
73749;PMS7003;62058;48.406;-4.514;2022-12-18T15:07:38;4.00;4.00;2.50
73749;PMS7003;62058;48.406;-4.514;2022-12-18T15:20:33;1.00;1.00;1.00
73749;PMS7003;62058;48.406;-4.514;2022-12-18T15:25:45;4.50;1.75;1.50
73749;PMS7003;62058;48.406;-4.514;2022-12-18T15:28:17;8.50;2.00;2.00
73749;PMS7003;62058;48.406;-4.514;2022-12-18T15:30:59;4.75;1.50;0.00
73749;PMS7003;62058;48.406;-4.514;2022-12-18T15:33:32;3.50;1.50;1.50
73749;PMS7003;62058;48.406;-4.514;2022-12-18T15:36:00;5.75;1.75;1.75
73749;PMS7003;62058;48.406;-4.514;2022-12-18T15:38:27;11.75;2.25;2.00
73749;PMS7003;62058;48.406;-4.514;2022-12-18T15:40:53;5.50;2.00;1.50
73749;PMS7003;62058;48.406;-4.514;2022-12-18T15:43:20;2.50;0.00;0.00
73749;PMS7003;62058;48.406;-4.514;2022-12-18T15:45:59;4.50;1.00;1.00
73749;PMS7003;62058;48.406;-4.514;2022-12-18T15:48:27;3.50;1.75;1.75
73749;PMS7003;62058;48.406;-4.514;2022-12-18T15:50:54;5.00;3.00;3.00
73749;PMS7003;62058;48.406;-4.514;2022-12-18T15:53:22;2.25;2.00;2.00
73749;PMS7003;62058;48.406;-4.514;2022-12-18T15:55:48;5.25;2.25;2.00
73749;PMS7003;62058;48.406;-4.514;2022-12-18T15:58:32;6.50;2.25;2.00
73749;PMS7003;62058;48.406;-4.514;2022-12-18T16:00:58;6.25;3.00;2.00
73749;PMS7003;62058;48.406;-4.514;2022-12-18T16:03:24;4.75;2.75;2.25
73749;PMS7003;62058;48.406;-4.514;2022-12-18T16:05:49;3.00;2.25;2.00
73749;PMS7003;62058;48.406;-4.514;2022-12-18T16:08:15;3.00;1.75;1.25
73749;PMS7003;62058;48.406;-4.514;2022-12-18T16:10:40;5.00;3.50;3.00
73749;PMS7003;62058;48.406;-4.514;2022-12-18T16:13:08;5.75;2.75;2.00
73749;PMS7003;62058;48.406;-4.514;2022-12-18T16:15:35;3.75;2.50;2.50
73749;PMS7003;62058;48.406;-4.514;2022-12-18T16:18:01;4.00;3.00;3.00
73749;PMS7003;62058;48.406;-4.514;2022-12-18T16:20:26;5.50;2.00;2.00
73749;PMS7003;62058;48.406;-4.514;2022-12-18T16:22:51;5.00;3.50;3.00
73749;PMS7003;62058;48.406;-4.514;2022-12-18T16:25:21;3.50;1.00;1.00
73749;PMS7003;62058;48.406;-4.514;2022-12-18T16:27:49;8.00;3.75;3.50
73749;PMS7003;62058;48.406;-4.514;2022-12-18T16:30:16;0.00;0.00;0.00
73749;PMS7003;62058;48.406;-4.514;2022-12-18T16:32:43;2.25;2.25;2.00
73749;PMS7003;62058;48.406;-4.514;2022-12-18T16:35:09;5.00;2.00;2.00
73749;PMS7003;62058;48.406;-4.514;2022-12-18T16:37:36;2.50;2.50;2.50
73749;PMS7003;62058;48.406;-4.514;2022-12-18T16:40:02;2.50;1.00;1.00